Rio Rancho, NM (87144)

2:28 PM MDT on March 30, 2015 (GMT -0600)
Esplanade Circle | | Change Station
CLOSE
Current Station
Personal Weather Station
Location: Rio Rancho, NM
Elevation: 5377 ft
Nearby Weather Stations

Elev 5377 ft 35.25 °N, 106.67 °W | Updated 9 minutes ago

Partly Cloudy
Partly Cloudy
85.8 °F
Feels Like 82 °F
N
5.3
Wind Variable Wind from WSW

Today
High -- | Low -- °F
--% Chance of Precip.
Yesterday
High -- | Low -- °F
Precip. -- in
6:56 AM 7:26 PM
Waxing Gibbous, 82% visible
Pressure 30.23 in
Visibility 10.0 miles
Clouds Scattered Clouds 14000 ft
Heat Index 82 °F
Dew Point 27 °F
Humidity 12%
Rainfall 0.00 in
Snow Depth Not available.
UV 8 out of 12
Pollen 11.80 out of 12
Air Quality Not available.
Flu Activity Not available.
METAR KAEG 301947Z 19008G14KT 10SM SCT140 22/M09 A3023

More Conditions Fewer Conditions

Pressure 30.23 in
Visibility 10.0 miles
Clouds Scattered Clouds 14000 ft
Heat Index 82 °F
Dew Point 27 °F
Humidity 12%
Rainfall 0.00 in
Snow Depth Not available.
UV 8 out of 12
Pollen 11.80 out of 12
Air Quality Not available.
Flu Activity Not available.
METAR KAEG 301947Z 19008G14KT 10SM SCT140 22/M09 A3023

More Conditions Fewer Conditions

10-Day Weather Forecast

Almanac

Astronomy

Mar. 30, 2015 Rise Set
Actual Time
Civil Twilight
Nautical Twilight
Astronomical Twilight
Moon
Length of Visible Light
Length of Day
Tomorrow will be .
, % of the Moon is Illuminated

Today's Extremes

State Highs State Lows

Community

WunderPhotos

Upload Photos

1,809,581 photos uploaded!

WunderBlogs® & News

Nearby

Air Quality

  Air Quality AQ Index Pollutant
Not available.

Snow Depth

Station Depth Elevation

Earthquake Activity

City Distance Mag. Time & Date
Minimum magnitude displayed is 2.5.

Coastal Water Temperatures

Place Temperature

Stations

Nearby Weather Stations

Station Location Temp. Windchill Dew Point Humidity Wind Precip. Elev Updated Type